Time;durP1;ratioP1;P1;durP2;ratioP2;P2;SDS_P1;SDS_P2;PMS_P1;PMS_P2;Temp;Humidity;BMP_temperature;BMP_pressure;BME280_temperature;BME280_humidity;BME280_pressure;Samples;Min_cycle;Max_cycle;Signal;HPM_P1;HPM_P2
2021/01/14 00:00:14;;;;;;;59.53;36.90;;;0.40;90.40;;;;;;5013494;28;20205;-64
2021/01/14 00:02:42;;;;;;;58.67;36.53;;;0.30;90.40;;;;;;5013778;28;20215;-64
2021/01/14 00:05:10;;;;;;;52.23;34.67;;;0.30;90.50;;;;;;5013697;28;20234;-64
2021/01/14 00:07:38;;;;;;;53.87;34.90;;;0.30;90.60;;;;;;5029015;28;20211;-64
2021/01/14 00:10:08;;;;;;;53.57;34.17;;;0.30;90.50;;;;;;5013644;28;20212;-64
2021/01/14 00:12:35;;;;;;;63.83;36.83;;;0.30;90.60;;;;;;5012627;28;20231;-64
2021/01/14 00:15:04;;;;;;;51.50;35.07;;;0.30;90.60;;;;;;5012831;28;20218;-64
2021/01/14 00:17:31;;;;;;;49.97;34.97;;;0.20;90.60;;;;;;5024740;28;20538;-64
2021/01/14 00:19:57;;;;;;;64.07;36.33;;;0.20;90.60;;;;;;5013389;28;20204;-65
2021/01/14 00:22:24;;;;;;;60.10;37.83;;;0.20;90.60;;;;;;5012382;28;20295;-64
2021/01/14 00:24:51;;;;;;;58.13;36.33;;;0.20;90.60;;;;;;5010173;28;20688;-64
2021/01/14 00:27:17;;;;;;;56.27;36.43;;;0.20;90.60;;;;;;5013653;28;20337;-64
2021/01/14 00:29:44;;;;;;;61.60;36.50;;;0.20;90.70;;;;;;5028566;28;20212;-64
2021/01/14 00:32:10;;;;;;;63.97;39.20;;;0.20;90.60;;;;;;5012952;28;20554;-64
2021/01/14 00:34:38;;;;;;;57.90;37.60;;;0.20;90.70;;;;;;5013476;28;20212;-64
2021/01/14 00:39:56;;;;;;;53.10;35.73;;;0.10;90.70;;;;;;5008495;28;20214;-64
2021/01/14 00:42:22;;;;;;;62.57;34.57;;;0.10;90.70;;;;;;5012579;28;20231;-64
2021/01/14 00:44:49;;;;;;;59.23;35.83;;;0.10;90.80;;;;;;5012943;28;20223;-64
2021/01/14 00:47:16;;;;;;;50.73;33.23;;;0.10;90.80;;;;;;5011882;28;20200;-64
2021/01/14 00:49:43;;;;;;;63.33;35.93;;;0.00;90.70;;;;;;5013517;28;20243;-64
2021/01/14 00:52:11;;;;;;;55.33;33.97;;;0.00;90.70;;;;;;5005513;28;20215;-64
2021/01/14 00:54:39;;;;;;;58.07;37.53;;;0.00;90.70;;;;;;5010613;28;20211;-64
2021/01/14 00:57:07;;;;;;;62.20;39.20;;;-0.10;90.70;;;;;;5008158;28;20207;-64
2021/01/14 00:59:35;;;;;;;62.50;38.10;;;0.00;90.80;;;;;;5010785;28;20208;-64
2021/01/14 01:02:03;;;;;;;63.40;37.00;;;-0.10;90.90;;;;;;5012770;28;20219;-64
2021/01/14 01:04:30;;;;;;;59.00;35.50;;;-0.10;90.90;;;;;;5012416;28;20217;-64
2021/01/14 01:06:57;;;;;;;53.53;35.37;;;-0.10;91.00;;;;;;5011049;28;20238;-64
2021/01/14 01:09:24;;;;;;;62.00;36.13;;;-0.10;90.90;;;;;;5013048;28;20207;-64
2021/01/14 01:11:50;;;;;;;54.23;37.50;;;0.00;90.90;;;;;;5011679;28;20207;-64
2021/01/14 01:14:17;;;;;;;59.27;37.50;;;-0.10;90.90;;;;;;5012055;28;20232;-64
2021/01/14 01:16:43;;;;;;;57.43;36.43;;;-0.10;91.00;;;;;;5011492;28;20212;-63
2021/01/14 01:19:10;;;;;;;58.70;36.20;;;-0.10;91.00;;;;;;5012171;28;20540;-64
2021/01/14 01:21:42;;;;;;;55.37;35.07;;;0.00;91.10;;;;;;5012551;28;20663;-64
2021/01/14 01:24:09;;;;;;;55.30;35.40;;;0.00;91.10;;;;;;5011144;28;20219;-64
2021/01/14 01:26:36;;;;;;;57.17;37.33;;;0.00;91.00;;;;;;5012285;28;20223;-64
2021/01/14 01:29:03;;;;;;;56.70;35.00;;;-0.10;91.00;;;;;;5011986;28;20452;-64
2021/01/14 01:31:30;;;;;;;55.93;34.47;;;-0.10;91.00;;;;;;5027889;28;20469;-64
2021/01/14 01:33:56;;;;;;;61.50;36.13;;;-0.10;90.90;;;;;;5011072;28;20235;-64
2021/01/14 01:36:23;;;;;;;53.50;34.20;;;-0.10;91.00;;;;;;5012318;28;20235;-64
2021/01/14 01:38:49;;;;;;;56.27;35.37;;;-0.10;91.00;;;;;;5012154;28;20578;-64
2021/01/14 01:41:16;;;;;;;55.33;34.40;;;-0.10;91.00;;;;;;5011690;28;20400;-64
2021/01/14 01:43:43;;;;;;;59.93;36.13;;;-0.20;90.90;;;;;;5011660;28;20464;-64
2021/01/14 01:46:20;;;;;;;56.77;35.40;;;-0.20;90.90;;;;;;5011879;28;20651;-64
2021/01/14 01:48:47;;;;;;;53.50;32.80;;;-0.20;90.90;;;;;;5008942;28;20211;-64
2021/01/14 01:51:13;;;;;;;50.87;32.77;;;-0.20;90.90;;;;;;5012699;28;20204;-64
2021/01/14 01:53:41;;;;;;;56.00;36.33;;;-0.20;90.90;;;;;;5012251;28;20231;-64
2021/01/14 01:56:08;;;;;;;59.43;37.53;;;-0.30;90.90;;;;;;5006299;28;20216;-64
2021/01/14 01:58:39;;;;;;;64.97;36.70;;;-0.30;91.00;;;;;;5011818;28;20204;-64
2021/01/14 02:01:07;;;;;;;65.73;39.30;;;-0.30;91.00;;;;;;5011940;28;20222;-64
2021/01/14 02:03:34;;;;;;;61.07;38.23;;;-0.20;91.10;;;;;;5011843;28;20208;-64
2021/01/14 02:06:01;;;;;;;62.83;39.00;;;-0.20;91.10;;;;;;5011965;28;20211;-64
2021/01/14 02:08:55;;;;;;;63.77;38.47;;;-0.20;91.10;;;;;;5011806;28;20212;-64
2021/01/14 02:11:32;;;;;;;54.93;35.70;;;-0.20;91.10;;;;;;5009257;28;20215;-64
2021/01/14 02:14:18;;;;;;;63.37;36.67;;;-0.20;91.10;;;;;;5004647;28;20231;-64
2021/01/14 02:16:46;;;;;;;58.73;35.90;;;-0.20;91.10;;;;;;5010856;28;20799;-64
2021/01/14 02:19:20;;;;;;;56.13;36.50;;;-0.20;91.00;;;;;;5027197;28;20543;-64
2021/01/14 02:21:49;;;;;;;57.07;37.40;;;-0.20;91.10;;;;;;5004950;28;20221;-64
2021/01/14 02:24:47;;;;;;;65.33;37.73;;;-0.20;91.10;;;;;;5011910;28;20628;-64
2021/01/14 02:27:15;;;;;;;59.90;36.70;;;-0.10;91.10;;;;;;5011775;28;20215;-64
2021/01/14 02:29:42;;;;;;;64.13;37.67;;;-0.10;91.20;;;;;;5015408;28;20215;-64
2021/01/14 02:32:16;;;;;;;56.63;36.13;;;-0.10;91.20;;;;;;5015357;28;20222;-64
2021/01/14 02:34:43;;;;;;;60.37;37.93;;;-0.10;91.20;;;;;;5027493;28;20527;-64
2021/01/14 02:37:10;;;;;;;58.70;35.93;;;-0.10;91.20;;;;;;5014605;28;20322;-64
2021/01/14 02:39:37;;;;;;;54.93;33.97;;;-0.10;91.10;;;;;;5014956;28;20660;-64
2021/01/14 02:42:04;;;;;;;56.07;34.37;;;-0.20;91.10;;;;;;5015270;28;20223;-64
2021/01/14 02:44:31;;;;;;;54.20;35.43;;;-0.20;91.10;;;;;;5015560;28;20529;-64
2021/01/14 02:46:58;;;;;;;62.13;36.77;;;-0.20;91.10;;;;;;5030154;28;20215;-64
2021/01/14 02:49:27;;;;;;;61.93;36.03;;;-0.20;91.10;;;;;;5015354;28;20204;-64
2021/01/14 02:52:00;;;;;;;52.87;34.63;;;-0.20;91.10;;;;;;5014419;28;20208;-64
2021/01/14 02:54:27;;;;;;;57.70;37.30;;;-0.30;91.10;;;;;;5015377;28;20787;-64
2021/01/14 02:56:54;;;;;;;55.93;35.90;;;-0.30;91.10;;;;;;5014532;28;20606;-64
2021/01/14 02:59:20;;;;;;;60.87;36.53;;;-0.30;91.10;;;;;;5014549;28;20220;-64
2021/01/14 03:01:48;;;;;;;61.40;37.33;;;-0.30;91.20;;;;;;5014973;28;20223;-64
2021/01/14 03:04:14;;;;;;;57.53;36.00;;;-0.30;91.10;;;;;;5014386;28;20227;-64
2021/01/14 03:06:41;;;;;;;54.40;36.07;;;-0.30;91.20;;;;;;5030047;28;20219;-64
2021/01/14 03:09:08;;;;;;;59.13;37.40;;;-0.30;91.20;;;;;;5009488;28;20219;-64
2021/01/14 03:11:35;;;;;;;58.80;35.63;;;-0.30;91.20;;;;;;5014115;28;20222;-64
2021/01/14 03:14:02;;;;;;;61.13;36.60;;;-0.30;91.10;;;;;;5014759;28;20671;-64
2021/01/14 03:16:29;;;;;;;56.47;35.87;;;-0.40;91.10;;;;;;5013711;28;20647;-64
2021/01/14 03:18:55;;;;;;;63.33;38.87;;;-0.40;91.10;;;;;;5006704;28;20605;-64
2021/01/14 03:21:23;;;;;;;65.03;36.43;;;-0.40;91.20;;;;;;5014247;28;20556;-64
2021/01/14 03:23:51;;;;;;;58.43;38.80;;;-0.40;91.30;;;;;;5014779;28;20207;-64
2021/01/14 03:26:19;;;;;;;62.70;37.73;;;-0.40;91.30;;;;;;5014421;28;20212;-64
2021/01/14 03:28:46;;;;;;;64.00;40.37;;;-0.40;91.30;;;;;;5014099;28;20215;-64
2021/01/14 03:31:14;;;;;;;60.43;38.70;;;-0.30;91.30;;;;;;5014542;28;20608;-64
2021/01/14 03:33:42;;;;;;;59.13;38.23;;;-0.30;91.20;;;;;;5029335;28;20296;-64
2021/01/14 03:36:12;;;;;;;64.73;40.07;;;-0.30;91.20;;;;;;5014824;28;20243;-64
2021/01/14 03:38:40;;;;;;;62.97;38.63;;;-0.30;91.30;;;;;;5014041;28;20533;-64
2021/01/14 03:41:14;;;;;;;65.03;39.17;;;-0.40;91.30;;;;;;5014233;28;20210;-64
2021/01/14 03:43:42;;;;;;;62.07;39.13;;;-0.40;91.30;;;;;;5013804;28;20207;-64
2021/01/14 03:46:11;;;;;;;68.53;41.33;;;-0.30;91.30;;;;;;5014224;28;20226;-64
2021/01/14 03:48:41;;;;;;;65.67;39.93;;;-0.30;91.30;;;;;;5013906;28;20306;-64
2021/01/14 03:51:17;;;;;;;62.70;38.10;;;-0.40;91.30;;;;;;5014524;28;20299;-64
2021/01/14 03:53:45;;;;;;;65.43;40.10;;;-0.40;91.40;;;;;;5028901;28;20238;-64
2021/01/14 03:56:13;;;;;;;69.17;41.57;;;-0.40;91.40;;;;;;5014337;28;20227;-64
2021/01/14 03:58:40;;;;;;;76.23;38.87;;;-0.40;91.50;;;;;;5011140;28;20215;-64
2021/01/14 04:01:06;;;;;;;60.73;38.93;;;-0.40;91.50;;;;;;5013324;28;20514;-65
2021/01/14 04:03:38;;;;;;;65.43;39.07;;;-0.40;91.50;;;;;;5013857;28;20253;-64
2021/01/14 04:06:05;;;;;;;68.43;40.43;;;-0.50;91.40;;;;;;5013765;28;20557;-64
2021/01/14 04:08:32;;;;;;;64.77;37.67;;;-0.50;91.40;;;;;;5013890;28;20216;-65
2021/01/14 04:10:58;;;;;;;59.20;39.23;;;-0.50;91.50;;;;;;5013720;28;20222;-64
2021/01/14 04:13:25;;;;;;;63.10;37.87;;;-0.50;91.40;;;;;;5013415;28;20227;-64
2021/01/14 04:15:51;;;;;;;58.70;36.27;;;-0.50;91.40;;;;;;5014038;28;20222;-64
2021/01/14 04:18:18;;;;;;;59.13;37.20;;;-0.50;91.40;;;;;;5012435;28;20214;-64
2021/01/14 04:20:44;;;;;;;58.53;36.90;;;-0.60;91.40;;;;;;5012761;28;20303;-64
2021/01/14 04:23:11;;;;;;;60.70;37.83;;;-0.60;91.40;;;;;;5014413;28;20294;-64
2021/01/14 04:25:38;;;;;;;64.87;37.13;;;-0.60;91.40;;;;;;5013408;28;20226;-64
2021/01/14 04:28:04;;;;;;;57.23;37.90;;;-0.60;91.70;;;;;;5029458;28;20212;-64
2021/01/14 04:30:35;;;;;;;63.50;39.77;;;-0.60;91.40;;;;;;5013316;28;20714;-64
2021/01/14 04:33:12;;;;;;;62.97;37.90;;;-0.50;91.50;;;;;;5029917;28;20239;-64
2021/01/14 04:35:54;;;;;;;67.10;39.90;;;-0.50;91.60;;;;;;5025550;28;20269;-64
2021/01/14 04:38:22;;;;;;;67.77;39.37;;;-0.40;91.60;;;;;;5013110;28;20199;-64
2021/01/14 04:40:59;;;;;;;58.90;36.27;;;-0.40;91.60;;;;;;5012131;28;20211;-64
2021/01/14 04:43:31;;;;;;;53.97;35.87;;;-0.30;91.70;;;;;;5012204;28;20271;-64
2021/01/14 04:46:09;;;;;;;63.00;36.43;;;-0.30;91.50;;;;;;5020888;28;20621;-64
2021/01/14 04:48:39;;;;;;;58.33;37.07;;;-0.30;91.30;;;;;;5011976;28;20639;-64
2021/01/14 04:51:12;;;;;;;57.70;36.77;;;-0.40;91.30;;;;;;5011854;28;20211;-64
2021/01/14 04:53:46;;;;;;;59.30;37.67;;;-0.40;91.30;;;;;;5012511;28;20238;-64
2021/01/14 04:56:15;;;;;;;61.23;37.97;;;-0.40;91.40;;;;;;5028394;28;20210;-64
2021/01/14 04:58:46;;;;;;;63.63;37.90;;;-0.50;91.40;;;;;;5012174;28;20208;-64
2021/01/14 05:01:19;;;;;;;63.00;37.87;;;-0.50;91.40;;;;;;5012900;28;20673;-64
2021/01/14 05:03:48;;;;;;;61.30;38.13;;;-0.50;91.40;;;;;;5012090;28;20218;-64
2021/01/14 05:06:18;;;;;;;58.10;38.10;;;-0.50;91.40;;;;;;5012180;28;20239;-64
2021/01/14 05:08:49;;;;;;;63.73;39.47;;;-0.50;91.40;;;;;;5012175;28;20219;-64
2021/01/14 05:11:18;;;;;;;65.07;40.93;;;-0.50;91.40;;;;;;5011208;28;20569;-64
2021/01/14 05:13:47;;;;;;;61.93;40.10;;;-0.50;91.40;;;;;;5012922;28;20254;-64
2021/01/14 05:16:14;;;;;;;66.47;38.83;;;-0.50;91.40;;;;;;5006391;28;20223;-64
2021/01/14 05:18:42;;;;;;;63.10;38.90;;;-0.50;91.40;;;;;;5027843;28;20228;-64
2021/01/14 05:21:09;;;;;;;59.60;39.27;;;-0.50;91.40;;;;;;5012266;28;20254;-64
2021/01/14 05:23:37;;;;;;;66.30;39.93;;;-0.50;91.40;;;;;;5012400;28;20242;-64
2021/01/14 05:26:03;;;;;;;59.57;37.17;;;-0.50;91.40;;;;;;5012050;28;20289;-64
2021/01/14 05:28:32;;;;;;;63.07;38.50;;;-0.50;91.40;;;;;;5012453;28;20299;-64
2021/01/14 05:31:18;;;;;;;62.83;39.10;;;-0.50;91.30;;;;;;5012545;28;20226;-64
2021/01/14 05:33:58;;;;;;;61.90;40.53;;;-0.50;91.30;;;;;;5012328;28;20679;-64
2021/01/14 05:36:24;;;;;;;59.57;38.53;;;-0.50;91.40;;;;;;5011230;28;20576;-64
2021/01/14 05:38:51;;;;;;;61.47;39.60;;;-0.50;91.40;;;;;;5012432;28;20238;-64
2021/01/14 05:41:28;;;;;;;63.30;38.47;;;-0.50;91.30;;;;;;5012020;28;20211;-64
2021/01/14 05:44:00;;;;;;;63.33;40.00;;;-0.50;91.20;;;;;;5012747;28;20281;-64
2021/01/14 05:46:28;;;;;;;62.83;39.53;;;-0.50;91.20;;;;;;5003571;28;20215;-64
2021/01/14 05:48:57;;;;;;;69.37;40.77;;;-0.60;91.20;;;;;;5004388;28;20290;-64
2021/01/14 05:51:26;;;;;;;63.27;40.73;;;-0.60;91.30;;;;;;5011693;28;20216;-64
2021/01/14 05:53:58;;;;;;;63.97;39.33;;;-0.60;91.40;;;;;;5010531;28;20227;-64
2021/01/14 05:56:27;;;;;;;64.03;39.07;;;-0.50;91.40;;;;;;5012518;28;20820;-64
2021/01/14 05:58:55;;;;;;;64.20;41.20;;;-0.50;91.40;;;;;;5025584;28;20612;-64
2021/01/14 06:01:25;;;;;;;66.47;40.30;;;-0.50;91.40;;;;;;5014098;28;20204;-64
2021/01/14 06:03:52;;;;;;;60.50;39.07;;;-0.40;91.40;;;;;;5015568;28;20222;-64
2021/01/14 06:06:19;;;;;;;64.87;39.77;;;-0.40;91.30;;;;;;5011178;28;20211;-64
2021/01/14 06:08:46;;;;;;;63.17;39.37;;;-0.50;91.20;;;;;;5015698;28;20539;-64
2021/01/14 06:11:22;;;;;;;68.70;41.97;;;-0.50;91.20;;;;;;5015937;28;20214;-64
2021/01/14 06:13:50;;;;;;;64.27;39.73;;;-0.50;91.30;;;;;;5015458;28;20241;-64
2021/01/14 06:16:16;;;;;;;59.50;37.60;;;-0.50;91.20;;;;;;5015326;28;20203;-64
2021/01/14 06:19:06;;;;;;;63.57;40.33;;;-0.50;91.10;;;;;;5014677;28;20699;-64
2021/01/14 06:21:48;;;;;;;68.47;42.03;;;-0.60;91.10;;;;;;5015003;28;20214;-64
2021/01/14 06:24:19;;;;;;;63.77;39.47;;;-0.60;91.20;;;;;;5031795;28;20222;-64
2021/01/14 06:26:47;;;;;;;66.73;40.63;;;-0.60;91.30;;;;;;5014770;28;20226;-64
2021/01/14 06:29:25;;;;;;;59.67;37.07;;;-0.60;91.20;;;;;;5009750;28;20231;-64
2021/01/14 06:32:05;;;;;;;62.70;38.77;;;-0.60;91.20;;;;;;5015124;28;20635;-64
2021/01/14 06:34:33;;;;;;;59.07;35.93;;;-0.70;91.10;;;;;;5031207;28;20705;-64
2021/01/14 06:37:13;;;;;;;59.53;37.53;;;-0.70;91.20;;;;;;5015041;28;20243;-64
2021/01/14 06:39:45;;;;;;;65.40;38.73;;;-0.80;91.30;;;;;;5015322;28;20212;-64
2021/01/14 06:42:16;;;;;;;61.40;38.13;;;-0.80;91.30;;;;;;5014542;28;20227;-64
2021/01/14 06:44:56;;;;;;;60.77;37.20;;;-0.80;91.30;;;;;;5013248;28;20207;-64
2021/01/14 06:47:35;;;;;;;64.73;37.87;;;-0.90;91.20;;;;;;5018211;28;20517;-64
2021/01/14 06:50:19;;;;;;;53.30;35.00;;;-0.90;91.30;;;;;;5013451;28;20203;-64
2021/01/14 06:53:01;;;;;;;55.40;35.53;;;-0.90;91.30;;;;;;5014569;28;20215;-64
2021/01/14 06:55:36;;;;;;;56.13;35.70;;;-1.00;91.20;;;;;;5014525;28;20218;-64
2021/01/14 06:58:02;;;;;;;69.37;42.23;;;-1.00;91.30;;;;;;5014699;28;20211;-64
2021/01/14 07:00:30;;;;;;;72.53;41.83;;;-0.90;91.40;;;;;;5010757;28;20212;-64
2021/01/14 07:03:21;;;;;;;77.30;44.60;;;-0.90;91.40;;;;;;5013684;28;20212;-64
2021/01/14 07:05:50;;;;;;;71.00;42.97;;;-0.80;91.80;;;;;;5003275;28;20216;-64
2021/01/14 07:08:17;;;;;;;72.90;46.37;;;-0.80;91.40;;;;;;5010924;28;20219;-64
2021/01/14 07:11:03;;;;;;;71.23;45.30;;;-0.80;91.40;;;;;;5013466;28;20218;-64
2021/01/14 07:13:42;;;;;;;83.60;47.97;;;-0.70;91.50;;;;;;5014211;28;20242;-64
2021/01/14 07:16:10;;;;;;;74.07;45.20;;;-0.60;91.50;;;;;;5028241;28;20221;-64
2021/01/14 07:18:38;;;;;;;75.90;46.23;;;-0.60;91.60;;;;;;5015384;28;20212;-64
2021/01/14 07:21:15;;;;;;;76.13;48.20;;;-0.40;91.60;;;;;;5014319;28;20211;-64
2021/01/14 07:23:56;;;;;;;76.50;47.90;;;-0.40;91.50;;;;;;5011878;28;20277;-64
2021/01/14 07:26:24;;;;;;;73.07;44.37;;;-0.30;91.40;;;;;;5029394;28;20244;-64
2021/01/14 07:28:52;;;;;;;91.53;48.37;;;-0.20;91.40;;;;;;5015056;28;20219;-64
2021/01/14 07:31:23;;;;;;;76.23;47.13;;;-0.10;91.30;;;;;;5014168;28;20219;-64
2021/01/14 07:33:50;;;;;;;84.27;47.20;;;0.00;91.30;;;;;;5013648;28;20230;-64
2021/01/14 07:36:22;;;;;;;85.23;45.77;;;0.00;91.30;;;;;;5029758;28;20509;-64
2021/01/14 07:38:53;;;;;;;71.73;44.73;;;0.10;91.20;;;;;;5013925;28;20263;-64
2021/01/14 07:41:21;;;;;;;74.73;46.00;;;0.20;91.20;;;;;;5014481;28;20212;-64
2021/01/14 07:43:49;;;;;;;80.70;45.97;;;0.30;91.10;;;;;;5014153;28;20241;-64
2021/01/14 07:46:24;;;;;;;75.27;46.27;;;0.40;91.00;;;;;;5014246;28;20216;-64
2021/01/14 07:48:52;;;;;;;70.70;44.43;;;0.50;91.00;;;;;;5013475;28;20222;-64
2021/01/14 07:51:20;;;;;;;67.77;44.57;;;0.50;90.90;;;;;;5028667;28;20665;-64
2021/01/14 07:54:09;;;;;;;67.13;44.13;;;0.60;90.80;;;;;;5012710;28;20224;-64
2021/01/14 07:56:52;;;;;;;74.33;46.33;;;0.60;90.70;;;;;;5010768;28;20218;-64
2021/01/14 07:59:28;;;;;;;75.80;45.40;;;0.60;90.60;;;;;;5012262;28;20232;-64
2021/01/14 08:01:59;;;;;;;75.33;46.63;;;0.70;90.60;;;;;;5014115;28;20210;-64
2021/01/14 08:04:26;;;;;;;79.67;48.43;;;0.80;90.70;;;;;;5012060;28;20207;-64
2021/01/14 08:06:53;;;;;;;79.43;47.63;;;0.90;90.70;;;;;;5013665;28;20227;-64
2021/01/14 08:09:20;;;;;;;75.37;47.10;;;1.00;90.60;;;;;;5014533;28;20204;-64
2021/01/14 08:11:46;;;;;;;71.17;45.80;;;1.10;90.60;;;;;;5013420;28;20226;-64
2021/01/14 08:14:16;;;;;;;71.17;44.93;;;1.20;90.50;;;;;;5028515;28;20232;-64
2021/01/14 08:16:48;;;;;;;64.30;43.10;;;1.40;90.40;;;;;;5013754;28;20210;-64
2021/01/14 08:19:26;;;;;;;65.17;43.37;;;1.40;90.20;;;;;;5012625;28;20204;-64
2021/01/14 08:21:59;;;;;;;67.73;42.60;;;1.50;90.10;;;;;;4999651;28;20208;-64
2021/01/14 08:24:34;;;;;;;68.47;44.67;;;1.60;90.00;;;;;;5012234;28;20678;-64
2021/01/14 08:27:07;;;;;;;71.10;44.37;;;1.60;89.90;;;;;;5022171;28;20643;-64
2021/01/14 08:29:58;;;;;;;69.83;43.53;;;1.70;89.80;;;;;;5014014;28;20294;-64
2021/01/14 08:32:46;;;;;;;65.97;43.37;;;1.70;89.50;;;;;;5013418;28;20214;-64
2021/01/14 08:35:16;;;;;;;75.87;46.53;;;1.80;89.50;;;;;;5012282;28;20216;-65
2021/01/14 08:37:47;;;;;;;66.80;44.93;;;1.90;89.40;;;;;;5013072;28;20263;-64
2021/01/14 08:40:25;;;;;;;73.07;44.33;;;2.00;89.40;;;;;;5027549;28;20212;-64
2021/01/14 08:43:14;;;;;;;62.97;45.37;;;2.10;89.30;;;;;;5013116;28;20216;-64
2021/01/14 08:45:44;;;;;;;72.33;46.23;;;2.20;89.10;;;;;;5029020;28;20216;-64
2021/01/14 08:48:11;;;;;;;71.60;45.70;;;2.30;88.90;;;;;;5012479;28;20584;-64
2021/01/14 08:50:39;;;;;;;68.60;45.87;;;2.30;88.70;;;;;;5013315;28;20220;-64
2021/01/14 08:53:08;;;;;;;76.47;47.80;;;2.40;88.60;;;;;;5012813;28;20603;-64
2021/01/14 08:55:35;;;;;;;76.73;49.67;;;2.50;88.50;;;;;;5012578;28;20226;-64
2021/01/14 08:58:06;;;;;;;79.90;52.57;;;2.50;88.40;;;;;;5028445;28;20596;-64
2021/01/14 09:00:34;;;;;;;81.67;52.53;;;2.60;88.40;;;;;;5012302;28;20302;-64
2021/01/14 09:03:01;;;;;;;85.47;54.33;;;2.60;88.30;;;;;;5013076;28;20210;-64
2021/01/14 09:05:28;;;;;;;89.93;56.10;;;2.70;88.30;;;;;;5012381;28;20212;-64
2021/01/14 09:08:05;;;;;;;90.47;56.20;;;2.90;88.30;;;;;;5012328;28;20216;-64
2021/01/14 09:10:59;;;;;;;84.73;56.40;;;2.90;88.10;;;;;;5012386;28;20203;-64
2021/01/14 09:13:31;;;;;;;94.37;59.33;;;3.10;88.10;;;;;;5000201;28;20347;-65
2021/01/14 09:16:09;;;;;;;86.20;58.43;;;3.30;88.00;;;;;;5006927;28;20270;-64
2021/01/14 09:18:37;;;;;;;92.80;59.37;;;3.30;87.70;;;;;;5012222;28;20653;-64
2021/01/14 09:21:04;;;;;;;96.30;60.20;;;3.50;87.40;;;;;;5028316;28;20214;-64
2021/01/14 09:23:36;;;;;;;93.57;61.57;;;3.60;87.00;;;;;;5012319;28;20294;-64
2021/01/14 09:26:10;;;;;;;87.67;57.77;;;3.70;86.80;;;;;;5028176;28;20216;-64
2021/01/14 09:28:38;;;;;;;90.93;61.03;;;3.80;86.40;;;;;;5027879;28;20215;-65
2021/01/14 09:31:10;;;;;;;92.00;60.30;;;3.80;85.90;;;;;;5010838;28;20678;-64
2021/01/14 09:33:39;;;;;;;95.33;60.50;;;3.80;85.60;;;;;;5012276;28;20240;-65
2021/01/14 09:36:14;;;;;;;91.73;59.93;;;3.90;85.60;;;;;;5027048;28;20258;-65
2021/01/14 09:38:48;;;;;;;90.07;61.17;;;4.00;85.60;;;;;;5013112;28;20235;-64
2021/01/14 09:41:33;;;;;;;84.87;58.77;;;4.10;85.60;;;;;;5027871;28;20290;-65
2021/01/14 09:44:03;;;;;;;97.70;62.10;;;4.20;85.30;;;;;;5006205;28;20501;-65
2021/01/14 09:46:36;;;;;;;92.63;58.63;;;4.30;85.20;;;;;;5012267;28;20204;-64
2021/01/14 09:49:09;;;;;;;94.50;61.77;;;4.40;84.90;;;;;;5005953;28;20220;-64
2021/01/14 09:51:40;;;;;;;91.33;62.10;;;4.50;84.70;;;;;;5011749;28;20520;-64
2021/01/14 09:54:09;;;;;;;90.97;60.90;;;4.50;84.60;;;;;;5008448;28;20271;-65
2021/01/14 09:56:49;;;;;;;92.53;62.17;;;4.60;84.40;;;;;;5011292;28;20208;-64
2021/01/14 09:59:34;;;;;;;94.53;62.07;;;4.70;84.20;;;;;;5012559;28;20203;-64
2021/01/14 10:02:22;;;;;;;97.87;63.23;;;4.70;84.00;;;;;;5009261;28;20235;-64
2021/01/14 10:04:59;;;;;;;103.87;66.77;;;4.70;83.70;;;;;;5011372;28;20219;-64
2021/01/14 10:07:26;;;;;;;93.80;64.13;;;4.70;83.80;;;;;;5011907;28;20671;-64
2021/01/14 10:09:54;;;;;;;99.70;67.10;;;4.80;83.90;;;;;;5012509;28;20247;-64
2021/01/14 10:12:21;;;;;;;100.83;64.37;;;4.90;83.70;;;;;;5026610;28;20684;-64
2021/01/14 10:14:47;;;;;;;89.13;62.30;;;5.00;83.60;;;;;;5004159;28;20309;-64
2021/01/14 10:17:16;;;;;;;99.10;65.13;;;5.00;83.40;;;;;;5012593;28;20208;-64
2021/01/14 10:19:52;;;;;;;92.13;63.53;;;5.20;83.40;;;;;;5011592;28;20239;-64
2021/01/14 10:22:23;;;;;;;91.93;64.17;;;5.30;83.20;;;;;;5011507;28;20223;-64
2021/01/14 10:24:49;;;;;;;94.30;64.30;;;5.30;82.80;;;;;;5011918;28;20210;-64
2021/01/14 10:27:18;;;;;;;98.00;64.90;;;5.40;82.60;;;;;;5011938;28;20223;-64
2021/01/14 10:29:46;;;;;;;90.50;62.77;;;5.40;82.50;;;;;;5011514;28;20219;-64
2021/01/14 10:32:22;;;;;;;96.03;63.53;;;5.50;82.20;;;;;;5027518;28;20204;-64
2021/01/14 10:34:53;;;;;;;93.53;62.37;;;5.50;82.10;;;;;;5028144;28;20246;-64
2021/01/14 10:37:24;;;;;;;89.90;63.03;;;5.50;82.00;;;;;;5006454;28;20232;-64
2021/01/14 10:39:54;;;;;;;93.40;63.50;;;5.60;81.80;;;;;;5010708;28;20258;-64
2021/01/14 10:42:27;;;;;;;94.67;62.13;;;5.60;81.60;;;;;;5011456;28;20234;-64
2021/01/14 10:45:00;;;;;;;90.73;60.63;;;5.60;81.30;;;;;;5011590;28;20648;-64
2021/01/14 10:47:28;;;;;;;86.57;59.37;;;5.70;81.20;;;;;;5016558;28;20234;-64
2021/01/14 10:49:54;;;;;;;89.50;61.23;;;5.70;80.60;;;;;;5030626;28;20298;-64
2021/01/14 10:52:26;;;;;;;90.57;59.60;;;5.80;80.70;;;;;;5014594;28;20234;-64
2021/01/14 10:55:01;;;;;;;86.97;59.83;;;5.90;80.70;;;;;;5015297;28;20231;-64
2021/01/14 10:57:53;;;;;;;79.47;56.07;;;5.90;80.30;;;;;;5004175;28;20203;-64
2021/01/14 11:00:24;;;;;;;75.93;55.70;;;6.00;79.70;;;;;;5011749;28;20529;-64
2021/01/14 11:03:02;;;;;;;82.80;55.40;;;6.00;79.50;;;;;;5015564;28;20222;-63
2021/01/14 11:05:45;;;;;;;87.77;56.73;;;6.10;78.60;;;;;;5014531;28;20266;-64
2021/01/14 11:08:23;;;;;;;90.07;57.30;;;6.20;78.20;;;;;;5008066;28;20561;-64
2021/01/14 11:11:10;;;;;;;79.83;54.27;;;6.30;78.10;;;;;;5029478;28;20663;-64
2021/01/14 11:13:49;;;;;;;84.77;56.67;;;6.40;77.70;;;;;;5014835;28;20326;-64
2021/01/14 11:16:25;;;;;;;79.73;54.17;;;6.50;77.20;;;;;;5014047;28;20533;-64
2021/01/14 11:18:55;;;;;;;82.50;54.87;;;6.50;77.40;;;;;;5014791;28;20574;-63
2021/01/14 11:21:29;;;;;;;72.50;53.27;;;6.60;77.20;;;;;;5014195;28;20234;-64
2021/01/14 11:23:57;;;;;;;76.13;53.53;;;6.70;76.70;;;;;;5007423;28;20222;-63
2021/01/14 11:26:24;;;;;;;73.13;52.63;;;6.80;76.40;;;;;;5014661;28;20212;-64
2021/01/14 11:28:51;;;;;;;86.27;51.83;;;6.80;75.90;;;;;;5029778;28;20207;-64
2021/01/14 11:31:22;;;;;;;71.07;50.37;;;6.90;75.30;;;;;;5015122;28;20211;-63
2021/01/14 11:33:49;;;;;;;70.97;48.57;;;7.00;75.20;;;;;;5029176;28;20242;-64
2021/01/14 11:36:20;;;;;;;65.60;47.10;;;7.00;74.50;;;;;;5013460;28;20236;-64
2021/01/14 11:38:50;;;;;;;61.47;45.00;;;7.10;74.20;;;;;;5014881;28;20203;-64
2021/01/14 11:41:18;;;;;;;66.33;48.00;;;7.10;73.40;;;;;;5009483;28;20671;-64
2021/01/14 11:43:45;;;;;;;67.40;47.33;;;7.20;72.70;;;;;;5011852;28;20220;-63
2021/01/14 11:46:14;;;;;;;68.10;47.17;;;7.30;72.20;;;;;;5013991;28;20211;-63
2021/01/14 11:48:41;;;;;;;66.00;47.33;;;7.40;72.10;;;;;;5012679;28;20300;-64
2021/01/14 11:51:07;;;;;;;76.97;46.67;;;7.40;71.30;;;;;;5014824;28;20365;-64
2021/01/14 11:53:37;;;;;;;63.77;46.30;;;7.50;71.30;;;;;;5014507;28;20220;-64
2021/01/14 11:56:05;;;;;;;67.10;46.90;;;7.50;70.90;;;;;;5014736;28;20210;-64
2021/01/14 11:58:32;;;;;;;64.93;44.83;;;7.60;70.70;;;;;;5013975;28;20246;-64
2021/01/14 12:00:59;;;;;;;63.83;44.93;;;7.60;70.50;;;;;;5030486;28;20250;-64
2021/01/14 12:03:28;;;;;;;59.90;42.97;;;7.70;70.10;;;;;;5014317;28;20204;-64
2021/01/14 12:05:55;;;;;;;64.47;43.90;;;7.80;69.70;;;;;;5013569;28;20211;-64
2021/01/14 12:08:22;;;;;;;63.27;43.77;;;7.90;69.40;;;;;;5013767;28;20204;-64
2021/01/14 12:10:49;;;;;;;65.90;43.73;;;8.00;68.40;;;;;;5014422;28;20208;-64
2021/01/14 12:13:15;;;;;;;62.30;44.43;;;8.00;68.30;;;;;;5012104;28;20204;-64
2021/01/14 12:15:41;;;;;;;63.27;44.90;;;8.10;68.10;;;;;;5013028;28;20230;-64
2021/01/14 12:18:08;;;;;;;66.53;46.70;;;8.10;68.50;;;;;;5029537;28;20235;-64
2021/01/14 12:20:35;;;;;;;65.07;45.30;;;8.10;68.10;;;;;;5028446;28;20208;-63
2021/01/14 12:23:01;;;;;;;67.10;48.00;;;8.20;67.90;;;;;;5013515;28;20214;-64
2021/01/14 12:25:28;;;;;;;65.77;45.93;;;8.20;68.30;;;;;;5012334;28;20338;-63
2021/01/14 12:27:55;;;;;;;61.13;46.20;;;8.20;68.10;;;;;;5013173;28;20219;-64
2021/01/14 12:30:22;;;;;;;65.63;43.17;;;8.30;67.90;;;;;;5011740;28;20269;-64
2021/01/14 12:32:48;;;;;;;61.53;43.90;;;8.30;68.00;;;;;;5013329;28;20648;-63
2021/01/14 12:35:15;;;;;;;64.80;45.57;;;8.30;67.40;;;;;;5013283;28;20231;-63
2021/01/14 12:37:41;;;;;;;65.70;45.90;;;8.30;67.80;;;;;;5011992;28;20235;-64
2021/01/14 12:40:09;;;;;;;58.90;41.93;;;8.30;68.10;;;;;;5012620;28;20247;-64
2021/01/14 12:42:36;;;;;;;63.57;44.60;;;8.30;67.40;;;;;;5025620;28;20225;-64
2021/01/14 12:45:04;;;;;;;65.90;45.63;;;8.30;67.50;;;;;;5012889;28;20228;-63
2021/01/14 12:47:31;;;;;;;60.20;45.27;;;8.30;67.20;;;;;;5028343;28;20403;-64
2021/01/14 12:49:58;;;;;;;63.20;44.70;;;8.20;67.60;;;;;;5013031;28;20242;-63